sensor_id;sensor_type;location;lat;lon;timestamp;pressure;altitude;pressure_sealevel;temperature;humidity
49377;BME280;35253;34.688;33.040;2023-05-27T00:00:03;100408.91;;;21.65;100.00
49377;BME280;35253;34.688;33.040;2023-05-27T00:02:29;100411.63;;;21.73;100.00
49377;BME280;35253;34.688;33.040;2023-05-27T00:04:55;100411.63;;;21.73;100.00
49377;BME280;35253;34.688;33.040;2023-05-27T00:07:21;100408.06;;;21.81;100.00
49377;BME280;35253;34.688;33.040;2023-05-27T00:09:47;100412.31;;;21.83;100.00
49377;BME280;35253;34.688;33.040;2023-05-27T00:12:12;100412.00;;;21.94;100.00
49377;BME280;35253;34.688;33.040;2023-05-27T00:14:38;100406.91;;;21.99;100.00
49377;BME280;35253;34.688;33.040;2023-05-27T00:17:03;100406.59;;;22.02;100.00
49377;BME280;35253;34.688;33.040;2023-05-27T00:19:30;100395.88;;;22.09;100.00
49377;BME280;35253;34.688;33.040;2023-05-27T00:21:56;100407.25;;;22.13;100.00
49377;BME280;35253;34.688;33.040;2023-05-27T00:24:22;100394.69;;;22.20;100.00
49377;BME280;35253;34.688;33.040;2023-05-27T00:26:48;100396.03;;;22.24;100.00
49377;BME280;35253;34.688;33.040;2023-05-27T00:29:16;100395.00;;;22.25;100.00
49377;BME280;35253;34.688;33.040;2023-05-27T00:31:42;100393.66;;;22.29;100.00
49377;BME280;35253;34.688;33.040;2023-05-27T00:34:07;100387.53;;;22.27;100.00
49377;BME280;35253;34.688;33.040;2023-05-27T00:36:33;100398.41;;;22.27;100.00
49377;BME280;35253;34.688;33.040;2023-05-27T00:39:00;100392.28;;;22.33;100.00
49377;BME280;35253;34.688;33.040;2023-05-27T00:41:26;100392.78;;;22.36;100.00
49377;BME280;35253;34.688;33.040;2023-05-27T00:43:55;100386.88;;;22.33;100.00
49377;BME280;35253;34.688;33.040;2023-05-27T00:46:21;100390.56;;;22.40;100.00
49377;BME280;35253;34.688;33.040;2023-05-27T00:48:48;100386.81;;;22.49;100.00
49377;BME280;35253;34.688;33.040;2023-05-27T00:51:14;100385.97;;;22.48;100.00
49377;BME280;35253;34.688;33.040;2023-05-27T00:53:41;100380.06;;;22.37;100.00
49377;BME280;35253;34.688;33.040;2023-05-27T00:56:08;100382.78;;;22.37;100.00
49377;BME280;35253;34.688;33.040;2023-05-27T00:58:35;100393.81;;;22.35;100.00
49377;BME280;35253;34.688;33.040;2023-05-27T01:01:03;100404.16;;;22.40;100.00
49377;BME280;35253;34.688;33.040;2023-05-27T01:03:29;100400.06;;;22.44;100.00
49377;BME280;35253;34.688;33.040;2023-05-27T01:09:44;100375.59;;;22.52;100.00
49377;BME280;35253;34.688;33.040;2023-05-27T01:11:51;100373.25;;;22.41;100.00
49377;BME280;35253;34.688;33.040;2023-05-27T01:14:20;100372.03;;;22.43;100.00
49377;BME280;35253;34.688;33.040;2023-05-27T01:16:49;100373.91;;;22.43;100.00
49377;BME280;35253;34.688;33.040;2023-05-27T01:19:27;100368.16;;;22.46;100.00
49377;BME280;35253;34.688;33.040;2023-05-27T01:21:57;100356.59;;;22.44;100.00
49377;BME280;35253;34.688;33.040;2023-05-27T01:24:24;100358.81;;;22.40;100.00
49377;BME280;35253;34.688;33.040;2023-05-27T01:26:50;100354.25;;;22.41;100.00
49377;BME280;35253;34.688;33.040;2023-05-27T01:29:15;100352.88;;;22.45;100.00
49377;BME280;35253;34.688;33.040;2023-05-27T01:35:02;100349.69;;;22.33;100.00
49377;BME280;35253;34.688;33.040;2023-05-27T01:37:34;100352.22;;;22.35;100.00
49377;BME280;35253;34.688;33.040;2023-05-27T01:40:01;100345.75;;;22.36;100.00
49377;BME280;35253;34.688;33.040;2023-05-27T01:42:33;100341.34;;;22.35;100.00
49377;BME280;35253;34.688;33.040;2023-05-27T01:45:01;100334.50;;;22.47;100.00
49377;BME280;35253;34.688;33.040;2023-05-27T01:47:27;100332.16;;;22.44;100.00
49377;BME280;35253;34.688;33.040;2023-05-27T01:49:53;100333.88;;;22.37;100.00
49377;BME280;35253;34.688;33.040;2023-05-27T01:52:19;100328.09;;;22.40;100.00
49377;BME280;35253;34.688;33.040;2023-05-27T01:54:44;100338.47;;;22.36;100.00
49377;BME280;35253;34.688;33.040;2023-05-27T01:57:10;100330.97;;;22.38;100.00
49377;BME280;35253;34.688;33.040;2023-05-27T01:59:36;100342.34;;;22.42;100.00
49377;BME280;35253;34.688;33.040;2023-05-27T02:02:02;100334.22;;;22.42;100.00
49377;BME280;35253;34.688;33.040;2023-05-27T02:04:27;100336.56;;;22.45;100.00
49377;BME280;35253;34.688;33.040;2023-05-27T02:06:53;100328.56;;;22.43;100.00
49377;BME280;35253;34.688;33.040;2023-05-27T02:09:19;100335.22;;;22.41;100.00
49377;BME280;35253;34.688;33.040;2023-05-27T02:11:45;100328.09;;;22.40;100.00
49377;BME280;35253;34.688;33.040;2023-05-27T02:14:11;100324.69;;;22.38;100.00
49377;BME280;35253;34.688;33.040;2023-05-27T02:16:37;100330.47;;;22.35;100.00
49377;BME280;35253;34.688;33.040;2023-05-27T02:19:05;100335.03;;;22.42;100.00
49377;BME280;35253;34.688;33.040;2023-05-27T02:21:31;100324.34;;;22.41;100.00
49377;BME280;35253;34.688;33.040;2023-05-27T02:23:57;100328.78;;;22.34;100.00
49377;BME280;35253;34.688;33.040;2023-05-27T02:26:23;100325.53;;;22.38;100.00
49377;BME280;35253;34.688;33.040;2023-05-27T02:28:49;100324.53;;;22.39;100.00
49377;BME280;35253;34.688;33.040;2023-05-27T02:31:15;100320.25;;;22.45;100.00
49377;BME280;35253;34.688;33.040;2023-05-27T02:33:41;100335.25;;;22.25;100.00
49377;BME280;35253;34.688;33.040;2023-05-27T02:36:06;100335.06;;;22.34;100.00
49377;BME280;35253;34.688;33.040;2023-05-27T02:38:32;100347.97;;;22.32;100.00
49377;BME280;35253;34.688;33.040;2023-05-27T02:40:58;100346.94;;;22.41;100.00
49377;BME280;35253;34.688;33.040;2023-05-27T02:43:24;100348.25;;;22.54;100.00
49377;BME280;35253;34.688;33.040;2023-05-27T02:45:49;100346.72;;;22.51;100.00
49377;BME280;35253;34.688;33.040;2023-05-27T02:48:15;100346.06;;;22.49;100.00
49377;BME280;35253;34.688;33.040;2023-05-27T02:50:41;100345.03;;;22.50;100.00
49377;BME280;35253;34.688;33.040;2023-05-27T02:53:06;100349.75;;;22.56;100.00
49377;BME280;35253;34.688;33.040;2023-05-27T02:55:32;100351.94;;;22.61;100.00
49377;BME280;35253;34.688;33.040;2023-05-27T02:57:58;100362.66;;;22.62;100.00
49377;BME280;35253;34.688;33.040;2023-05-27T03:00:23;100364.34;;;22.63;100.00
49377;BME280;35253;34.688;33.040;2023-05-27T03:02:49;100375.88;;;22.65;100.00
49377;BME280;35253;34.688;33.040;2023-05-27T03:05:15;100381.31;;;22.65;100.00
49377;BME280;35253;34.688;33.040;2023-05-27T03:07:41;100384.38;;;22.70;100.00
49377;BME280;35253;34.688;33.040;2023-05-27T03:10:07;100401.72;;;22.69;100.00
49377;BME280;35253;34.688;33.040;2023-05-27T03:12:33;100411.56;;;22.70;100.00
49377;BME280;35253;34.688;33.040;2023-05-27T03:14:59;100427.53;;;22.57;100.00
49377;BME280;35253;34.688;33.040;2023-05-27T03:17:25;100456.09;;;22.45;100.00
49377;BME280;35253;34.688;33.040;2023-05-27T03:19:50;100468.84;;;22.36;100.00
49377;BME280;35253;34.688;33.040;2023-05-27T03:22:16;100466.97;;;22.37;100.00
49377;BME280;35253;34.688;33.040;2023-05-27T03:24:42;100464.06;;;22.38;100.00
49377;BME280;35253;34.688;33.040;2023-05-27T03:27:10;100463.25;;;22.46;100.00
49377;BME280;35253;34.688;33.040;2023-05-27T03:29:36;100446.03;;;22.62;100.00
49377;BME280;35253;34.688;33.040;2023-05-27T03:32:02;100436.66;;;22.88;100.00
49377;BME280;35253;34.688;33.040;2023-05-27T03:34:27;100426.22;;;23.00;100.00
49377;BME280;35253;34.688;33.040;2023-05-27T03:36:53;100421.25;;;23.12;100.00
49377;BME280;35253;34.688;33.040;2023-05-27T03:39:19;100411.72;;;23.16;100.00
49377;BME280;35253;34.688;33.040;2023-05-27T03:41:44;100399.84;;;23.09;100.00
49377;BME280;35253;34.688;33.040;2023-05-27T03:44:10;100389.31;;;23.06;100.00
49377;BME280;35253;34.688;33.040;2023-05-27T03:46:36;100384.69;;;23.14;100.00
49377;BME280;35253;34.688;33.040;2023-05-27T03:49:02;100377.06;;;23.10;100.00
49377;BME280;35253;34.688;33.040;2023-05-27T03:51:28;100372.09;;;23.13;100.00
49377;BME280;35253;34.688;33.040;2023-05-27T03:53:53;100363.09;;;23.13;100.00
49377;BME280;35253;34.688;33.040;2023-05-27T03:56:19;100334.19;;;23.20;100.00
49377;BME280;35253;34.688;33.040;2023-05-27T03:58:45;100310.31;;;23.30;100.00
49377;BME280;35253;34.688;33.040;2023-05-27T04:01:11;100308.69;;;23.21;100.00
49377;BME280;35253;34.688;33.040;2023-05-27T04:03:37;100308.38;;;23.16;100.00
49377;BME280;35253;34.688;33.040;2023-05-27T04:06:05;100306.34;;;23.10;100.00
49377;BME280;35253;34.688;33.040;2023-05-27T04:08:31;100312.47;;;23.12;99.94
49377;BME280;35253;34.688;33.040;2023-05-27T04:10:57;100308.00;;;23.19;96.13
49377;BME280;35253;34.688;33.040;2023-05-27T04:13:23;100322.94;;;23.23;96.87
49377;BME280;35253;34.688;33.040;2023-05-27T04:15:49;100320.56;;;23.20;92.93
49377;BME280;35253;34.688;33.040;2023-05-27T04:18:15;100321.53;;;23.27;93.07
49377;BME280;35253;34.688;33.040;2023-05-27T04:20:41;100301.47;;;23.28;93.32
49377;BME280;35253;34.688;33.040;2023-05-27T04:23:09;100286.84;;;23.29;92.16
49377;BME280;35253;34.688;33.040;2023-05-27T04:25:35;100274.03;;;23.38;89.11
49377;BME280;35253;34.688;33.040;2023-05-27T04:28:02;100252.59;;;23.57;82.26
49377;BME280;35253;34.688;33.040;2023-05-27T04:30:32;100253.66;;;23.71;71.58
49377;BME280;35253;34.688;33.040;2023-05-27T04:32:59;100252.66;;;23.87;66.21
49377;BME280;35253;34.688;33.040;2023-05-27T04:35:26;100286.34;;;24.00;63.60
49377;BME280;35253;34.688;33.040;2023-05-27T04:37:51;100305.78;;;24.20;58.98
49377;BME280;35253;34.688;33.040;2023-05-27T04:40:17;100326.53;;;24.21;61.36
49377;BME280;35253;34.688;33.040;2023-05-27T04:42:43;100339.78;;;24.24;62.39
49377;BME280;35253;34.688;33.040;2023-05-27T04:45:09;100372.75;;;24.29;62.88
49377;BME280;35253;34.688;33.040;2023-05-27T04:47:37;100376.25;;;24.52;67.42
49377;BME280;35253;34.688;33.040;2023-05-27T04:50:06;100362.13;;;24.78;82.56
49377;BME280;35253;34.688;33.040;2023-05-27T04:52:33;100342.47;;;24.83;92.26
49377;BME280;35253;34.688;33.040;2023-05-27T04:55:07;100337.03;;;24.83;100.00
49377;BME280;35253;34.688;33.040;2023-05-27T04:57:33;100325.50;;;24.66;100.00
49377;BME280;35253;34.688;33.040;2023-05-27T04:59:59;100317.78;;;24.69;97.44
49377;BME280;35253;34.688;33.040;2023-05-27T05:02:29;100311.09;;;24.87;88.29
49377;BME280;35253;34.688;33.040;2023-05-27T05:05:07;100322.16;;;25.00;87.41
49377;BME280;35253;34.688;33.040;2023-05-27T05:07:34;100318.13;;;24.96;92.38
49377;BME280;35253;34.688;33.040;2023-05-27T05:10:04;100318.31;;;24.94;99.53
49377;BME280;35253;34.688;33.040;2023-05-27T05:12:30;100305.25;;;24.90;100.00
49377;BME280;35253;34.688;33.040;2023-05-27T05:14:57;100313.13;;;24.85;99.78
49377;BME280;35253;34.688;33.040;2023-05-27T05:17:23;100304.31;;;24.83;91.65
49377;BME280;35253;34.688;33.040;2023-05-27T05:19:50;100286.88;;;24.98;85.64
49377;BME280;35253;34.688;33.040;2023-05-27T05:22:16;100274.75;;;25.22;77.56
49377;BME280;35253;34.688;33.040;2023-05-27T05:24:47;100260.78;;;25.32;69.34
49377;BME280;35253;34.688;33.040;2023-05-27T05:27:13;100249.91;;;25.38;64.12
49377;BME280;35253;34.688;33.040;2023-05-27T05:29:39;100246.00;;;25.47;56.35
49377;BME280;35253;34.688;33.040;2023-05-27T05:32:05;100230.81;;;25.60;54.04
49377;BME280;35253;34.688;33.040;2023-05-27T05:34:31;100228.81;;;25.75;53.51
49377;BME280;35253;34.688;33.040;2023-05-27T05:36:56;100230.13;;;25.79;52.38
49377;BME280;35253;34.688;33.040;2023-05-27T05:39:22;100218.00;;;25.88;53.61
49377;BME280;35253;34.688;33.040;2023-05-27T05:41:48;100212.84;;;26.06;54.72
49377;BME280;35253;34.688;33.040;2023-05-27T05:44:15;100209.88;;;26.42;57.01
49377;BME280;35253;34.688;33.040;2023-05-27T05:46:41;100198.59;;;26.58;58.77
49377;BME280;35253;34.688;33.040;2023-05-27T05:49:07;100181.38;;;26.77;58.71
49377;BME280;35253;34.688;33.040;2023-05-27T05:51:32;100170.84;;;26.74;61.41
49377;BME280;35253;34.688;33.040;2023-05-27T05:53:58;100173.22;;;26.97;60.72
49377;BME280;35253;34.688;33.040;2023-05-27T05:56:24;100157.88;;;27.09;62.02
49377;BME280;35253;34.688;33.040;2023-05-27T05:58:51;100163.34;;;27.35;63.50
49377;BME280;35253;34.688;33.040;2023-05-27T06:01:17;100162.06;;;27.58;63.85
49377;BME280;35253;34.688;33.040;2023-05-27T06:03:43;100162.50;;;27.55;65.22
49377;BME280;35253;34.688;33.040;2023-05-27T06:06:08;100155.31;;;27.60;65.87
49377;BME280;35253;34.688;33.040;2023-05-27T06:08:35;100162.91;;;27.65;65.87
49377;BME280;35253;34.688;33.040;2023-05-27T06:11:00;100169.22;;;27.46;65.80
49377;BME280;35253;34.688;33.040;2023-05-27T06:13:26;100169.84;;;27.34;66.28
49377;BME280;35253;34.688;33.040;2023-05-27T06:15:52;100170.09;;;27.53;67.36
49377;BME280;35253;34.688;33.040;2023-05-27T06:18:17;100169.47;;;27.51;66.67
49377;BME280;35253;34.688;33.040;2023-05-27T06:20:43;100184.41;;;27.61;66.21
49377;BME280;35253;34.688;33.040;2023-05-27T06:23:09;100189.66;;;27.56;65.54
49377;BME280;35253;34.688;33.040;2023-05-27T06:25:35;100187.78;;;27.57;65.83
49377;BME280;35253;34.688;33.040;2023-05-27T06:28:00;100202.94;;;27.53;66.77
49377;BME280;35253;34.688;33.040;2023-05-27T06:30:26;100203.59;;;27.55;67.10
49377;BME280;35253;34.688;33.040;2023-05-27T06:32:52;100208.22;;;27.54;68.97
49377;BME280;35253;34.688;33.040;2023-05-27T06:35:18;100225.72;;;27.60;70.22
49377;BME280;35253;34.688;33.040;2023-05-27T06:37:44;100239.16;;;27.42;75.85
49377;BME280;35253;34.688;33.040;2023-05-27T06:40:10;100241.69;;;27.23;81.37
49377;BME280;35253;34.688;33.040;2023-05-27T06:42:36;100237.03;;;27.11;84.21
49377;BME280;35253;34.688;33.040;2023-05-27T06:45:02;100252.19;;;27.07;86.45
49377;BME280;35253;34.688;33.040;2023-05-27T06:47:28;100242.69;;;26.96;87.49
49377;BME280;35253;34.688;33.040;2023-05-27T06:49:55;100239.50;;;26.86;88.22
49377;BME280;35253;34.688;33.040;2023-05-27T06:52:20;100230.47;;;26.92;91.45
49377;BME280;35253;34.688;33.040;2023-05-27T06:54:47;100232.34;;;26.85;95.30
49377;BME280;35253;34.688;33.040;2023-05-27T06:57:13;100220.72;;;26.83;96.70
49377;BME280;35253;34.688;33.040;2023-05-27T06:59:39;100204.16;;;26.91;96.83
49377;BME280;35253;34.688;33.040;2023-05-27T07:02:06;100198.31;;;27.07;94.85
49377;BME280;35253;34.688;33.040;2023-05-27T07:04:32;100171.56;;;27.09;92.67
49377;BME280;35253;34.688;33.040;2023-05-27T07:06:57;100173.00;;;26.92;91.51
49377;BME280;35253;34.688;33.040;2023-05-27T07:09:23;100169.00;;;26.95;91.02
49377;BME280;35253;34.688;33.040;2023-05-27T07:11:49;100142.06;;;27.05;86.10
49377;BME280;35253;34.688;33.040;2023-05-27T07:14:15;100114.91;;;27.29;82.25
49377;BME280;35253;34.688;33.040;2023-05-27T07:16:41;100108.75;;;27.67;79.64
49377;BME280;35253;34.688;33.040;2023-05-27T07:19:06;100113.94;;;27.95;78.37
49377;BME280;35253;34.688;33.040;2023-05-27T07:21:32;100117.59;;;28.27;75.71
49377;BME280;35253;34.688;33.040;2023-05-27T07:24:00;100126.59;;;28.40;73.76
49377;BME280;35253;34.688;33.040;2023-05-27T07:26:32;100120.44;;;28.45;72.12
49377;BME280;35253;34.688;33.040;2023-05-27T07:28:58;100096.81;;;28.44;70.44
49377;BME280;35253;34.688;33.040;2023-05-27T07:31:26;100071.34;;;28.68;66.54
49377;BME280;35253;34.688;33.040;2023-05-27T07:33:52;100068.63;;;28.61;63.23
49377;BME280;35253;34.688;33.040;2023-05-27T07:36:18;100045.41;;;28.95;59.37
49377;BME280;35253;34.688;33.040;2023-05-27T07:38:44;100048.38;;;29.37;55.38
49377;BME280;35253;34.688;33.040;2023-05-27T07:41:10;100048.88;;;29.27;54.11
49377;BME280;35253;34.688;33.040;2023-05-27T07:43:36;100051.41;;;29.29;53.86
49377;BME280;35253;34.688;33.040;2023-05-27T07:46:02;100040.72;;;29.21;51.87
49377;BME280;35253;34.688;33.040;2023-05-27T07:48:28;100041.06;;;29.06;50.61
49377;BME280;35253;34.688;33.040;2023-05-27T07:50:54;100043.34;;;28.91;49.21
49377;BME280;35253;34.688;33.040;2023-05-27T07:53:20;100042.03;;;28.93;48.58
49377;BME280;35253;34.688;33.040;2023-05-27T07:55:46;100053.09;;;28.87;47.85
49377;BME280;35253;34.688;33.040;2023-05-27T07:58:12;100061.06;;;28.88;47.16
49377;BME280;35253;34.688;33.040;2023-05-27T08:00:37;100065.34;;;28.84;47.61
49377;BME280;35253;34.688;33.040;2023-05-27T08:03:03;100078.88;;;28.79;47.36
49377;BME280;35253;34.688;33.040;2023-05-27T08:05:29;100089.91;;;28.73;48.04
49377;BME280;35253;34.688;33.040;2023-05-27T08:07:54;100114.84;;;28.64;48.40
49377;BME280;35253;34.688;33.040;2023-05-27T08:10:20;100101.75;;;28.66;49.21
49377;BME280;35253;34.688;33.040;2023-05-27T08:12:46;100074.38;;;28.60;50.97
49377;BME280;35253;34.688;33.040;2023-05-27T08:15:12;100047.38;;;28.57;51.63
49377;BME280;35253;34.688;33.040;2023-05-27T08:17:37;100025.47;;;28.82;49.80
49377;BME280;35253;34.688;33.040;2023-05-27T08:20:04;99993.00;;;28.97;49.72
49377;BME280;35253;34.688;33.040;2023-05-27T08:22:31;100004.94;;;29.27;48.79
49377;BME280;35253;34.688;33.040;2023-05-27T08:24:57;99994.38;;;29.31;48.18
49377;BME280;35253;34.688;33.040;2023-05-27T08:27:49;100016.94;;;29.87;47.03
49377;BME280;35253;34.688;33.040;2023-05-27T08:30:15;100006.16;;;29.86;47.05
49377;BME280;35253;34.688;33.040;2023-05-27T08:32:42;100006.38;;;29.84;47.80
49377;BME280;35253;34.688;33.040;2023-05-27T08:35:08;100003.56;;;29.91;47.13
49377;BME280;35253;34.688;33.040;2023-05-27T08:37:34;100012.34;;;29.81;47.93
49377;BME280;35253;34.688;33.040;2023-05-27T08:40:00;100029.75;;;29.75;48.75
49377;BME280;35253;34.688;33.040;2023-05-27T08:42:26;100027.09;;;29.50;46.48
49377;BME280;35253;34.688;33.040;2023-05-27T08:44:52;100017.28;;;29.43;46.12
49377;BME280;35253;34.688;33.040;2023-05-27T08:47:17;100007.81;;;29.39;46.86
49377;BME280;35253;34.688;33.040;2023-05-27T08:49:44;99985.84;;;29.39;46.15
49377;BME280;35253;34.688;33.040;2023-05-27T08:52:11;99984.06;;;29.44;45.53
49377;BME280;35253;34.688;33.040;2023-05-27T08:54:40;99965.09;;;29.43;46.81
49377;BME280;35253;34.688;33.040;2023-05-27T08:57:07;99981.88;;;29.35;47.81
49377;BME280;35253;34.688;33.040;2023-05-27T08:59:34;99985.69;;;29.52;48.00
49377;BME280;35253;34.688;33.040;2023-05-27T09:02:00;99985.50;;;29.65;50.50
49377;BME280;35253;34.688;33.040;2023-05-27T09:04:28;99965.81;;;29.68;51.36
49377;BME280;35253;34.688;33.040;2023-05-27T09:06:54;99955.88;;;29.67;51.72
49377;BME280;35253;34.688;33.040;2023-05-27T09:09:19;99936.50;;;29.62;49.90
49377;BME280;35253;34.688;33.040;2023-05-27T09:11:45;99940.34;;;29.61;47.67
49377;BME280;35253;34.688;33.040;2023-05-27T09:14:22;99941.75;;;29.64;45.98
49377;BME280;35253;34.688;33.040;2023-05-27T09:16:48;99949.47;;;29.73;43.62
49377;BME280;35253;34.688;33.040;2023-05-27T09:19:17;99956.78;;;29.79;42.87
49377;BME280;35253;34.688;33.040;2023-05-27T09:21:43;99962.22;;;29.97;42.67
49377;BME280;35253;34.688;33.040;2023-05-27T09:24:10;99951.03;;;30.11;43.33
49377;BME280;35253;34.688;33.040;2023-05-27T09:26:36;99947.97;;;30.19;43.42
49377;BME280;35253;34.688;33.040;2023-05-27T09:29:06;99954.88;;;30.10;42.67
49377;BME280;35253;34.688;33.040;2023-05-27T09:31:41;99954.13;;;30.03;42.80
49377;BME280;35253;34.688;33.040;2023-05-27T09:34:15;99956.63;;;29.92;41.59
49377;BME280;35253;34.688;33.040;2023-05-27T09:36:50;99975.53;;;29.82;41.22
49377;BME280;35253;34.688;33.040;2023-05-27T09:39:22;99981.22;;;29.69;42.59
49377;BME280;35253;34.688;33.040;2023-05-27T09:41:55;99980.94;;;29.59;40.59
49377;BME280;35253;34.688;33.040;2023-05-27T09:44:27;99982.78;;;29.47;40.21
49377;BME280;35253;34.688;33.040;2023-05-27T09:46:53;99986.22;;;29.42;40.73
49377;BME280;35253;34.688;33.040;2023-05-27T09:49:20;99988.91;;;29.31;41.39
49377;BME280;35253;34.688;33.040;2023-05-27T09:51:47;100003.28;;;29.26;45.10
49377;BME280;35253;34.688;33.040;2023-05-27T09:54:18;99994.03;;;29.21;44.44
49377;BME280;35253;34.688;33.040;2023-05-27T09:56:48;99981.53;;;29.25;48.17
49377;BME280;35253;34.688;33.040;2023-05-27T09:59:14;99981.75;;;29.23;48.00
49377;BME280;35253;34.688;33.040;2023-05-27T10:01:40;100005.78;;;29.28;45.95
49377;BME280;35253;34.688;33.040;2023-05-27T10:04:09;100008.19;;;29.42;43.58
49377;BME280;35253;34.688;33.040;2023-05-27T10:06:37;100022.91;;;29.48;46.61
49377;BME280;35253;34.688;33.040;2023-05-27T10:09:03;100003.69;;;29.66;45.50
49377;BME280;35253;34.688;33.040;2023-05-27T10:11:33;99981.16;;;29.58;46.52
49377;BME280;35253;34.688;33.040;2023-05-27T10:14:04;99952.00;;;29.20;48.41
49377;BME280;35253;34.688;33.040;2023-05-27T10:16:31;99959.41;;;29.20;50.72
49377;BME280;35253;34.688;33.040;2023-05-27T10:18:57;99968.28;;;29.22;52.33
49377;BME280;35253;34.688;33.040;2023-05-27T10:21:27;99979.41;;;29.27;54.07
49377;BME280;35253;34.688;33.040;2023-05-27T10:23:56;99969.91;;;29.23;61.54
49377;BME280;35253;34.688;33.040;2023-05-27T10:26:42;99953.31;;;29.18;68.92
49377;BME280;35253;34.688;33.040;2023-05-27T10:29:16;99973.75;;;29.03;67.52
49377;BME280;35253;34.688;33.040;2023-05-27T10:31:52;99964.78;;;29.33;66.30
49377;BME280;35253;34.688;33.040;2023-05-27T10:34:18;99960.63;;;29.24;68.24
49377;BME280;35253;34.688;33.040;2023-05-27T10:36:45;99959.06;;;29.34;65.99
49377;BME280;35253;34.688;33.040;2023-05-27T10:39:18;99967.47;;;29.39;60.86
49377;BME280;35253;34.688;33.040;2023-05-27T10:41:48;99969.47;;;29.62;56.22
49377;BME280;35253;34.688;33.040;2023-05-27T10:44:37;99970.81;;;29.89;51.02
49377;BME280;35253;34.688;33.040;2023-05-27T10:47:10;99964.88;;;29.92;49.88
49377;BME280;35253;34.688;33.040;2023-05-27T10:49:38;99965.09;;;29.91;47.31
49377;BME280;35253;34.688;33.040;2023-05-27T10:52:15;99978.88;;;30.03;45.80
49377;BME280;35253;34.688;33.040;2023-05-27T10:54:43;99972.19;;;30.52;43.84
49377;BME280;35253;34.688;33.040;2023-05-27T10:57:09;99970.31;;;31.22;43.72
49377;BME280;35253;34.688;33.040;2023-05-27T11:02:11;99964.00;;;31.61;40.56
49377;BME280;35253;34.688;33.040;2023-05-27T11:04:37;99956.75;;;31.32;40.01
49377;BME280;35253;34.688;33.040;2023-05-27T11:07:04;99956.94;;;31.42;39.00
49377;BME280;35253;34.688;33.040;2023-05-27T11:09:30;99962.31;;;31.60;38.12
49377;BME280;35253;34.688;33.040;2023-05-27T11:11:56;99974.41;;;31.71;38.09
49377;BME280;35253;34.688;33.040;2023-05-27T11:14:25;99969.00;;;31.64;36.90
49377;BME280;35253;34.688;33.040;2023-05-27T11:16:51;99975.53;;;31.58;37.64
49377;BME280;35253;34.688;33.040;2023-05-27T11:19:17;99984.03;;;31.57;36.76
49377;BME280;35253;34.688;33.040;2023-05-27T11:21:47;99993.47;;;31.72;36.60
49377;BME280;35253;34.688;33.040;2023-05-27T11:24:17;100006.69;;;31.59;36.78
49377;BME280;35253;34.688;33.040;2023-05-27T11:26:45;100005.22;;;31.56;36.55
49377;BME280;35253;34.688;33.040;2023-05-27T11:29:14;100012.16;;;31.47;37.25
49377;BME280;35253;34.688;33.040;2023-05-27T11:31:41;100019.63;;;31.35;38.19
49377;BME280;35253;34.688;33.040;2023-05-27T11:34:15;100020.13;;;31.32;38.60
49377;BME280;35253;34.688;33.040;2023-05-27T11:36:43;100020.38;;;31.19;51.20
49377;BME280;35253;34.688;33.040;2023-05-27T11:39:11;100015.50;;;30.56;60.13
49377;BME280;35253;34.688;33.040;2023-05-27T11:41:52;100009.22;;;30.37;55.58
49377;BME280;35253;34.688;33.040;2023-05-27T11:44:23;100010.19;;;30.43;55.90
49377;BME280;35253;34.688;33.040;2023-05-27T11:46:50;99983.44;;;30.09;60.98
49377;BME280;35253;34.688;33.040;2023-05-27T11:49:18;100000.28;;;30.01;56.83
49377;BME280;35253;34.688;33.040;2023-05-27T11:51:49;100004.88;;;29.88;59.06
49377;BME280;35253;34.688;33.040;2023-05-27T11:54:19;100015.25;;;29.86;57.57
49377;BME280;35253;34.688;33.040;2023-05-27T11:56:47;100015.25;;;29.86;56.03
49377;BME280;35253;34.688;33.040;2023-05-27T11:59:13;100015.56;;;29.96;54.86
49377;BME280;35253;34.688;33.040;2023-05-27T12:01:42;100027.06;;;30.05;53.27
49377;BME280;35253;34.688;33.040;2023-05-27T12:04:08;100029.53;;;29.95;50.66
49377;BME280;35253;34.688;33.040;2023-05-27T12:06:35;100043.88;;;29.97;50.09
49377;BME280;35253;34.688;33.040;2023-05-27T12:09:05;100051.59;;;29.88;48.50
49377;BME280;35253;34.688;33.040;2023-05-27T12:11:31;100058.19;;;29.87;46.86
49377;BME280;35253;34.688;33.040;2023-05-27T12:13:57;100059.63;;;29.90;48.46
49377;BME280;35253;34.688;33.040;2023-05-27T12:16:24;100063.28;;;29.84;51.00
49377;BME280;35253;34.688;33.040;2023-05-27T12:18:49;100075.19;;;29.78;48.33
49377;BME280;35253;34.688;33.040;2023-05-27T12:21:16;100076.34;;;29.70;57.35
49377;BME280;35253;34.688;33.040;2023-05-27T12:23:42;100078.59;;;29.55;65.28
49377;BME280;35253;34.688;33.040;2023-05-27T12:26:08;100083.72;;;29.51;63.40
49377;BME280;35253;34.688;33.040;2023-05-27T12:28:35;100088.22;;;29.21;64.86
49377;BME280;35253;34.688;33.040;2023-05-27T12:31:02;100094.69;;;29.08;64.84
49377;BME280;35253;34.688;33.040;2023-05-27T12:33:28;100094.97;;;29.00;66.92
49377;BME280;35253;34.688;33.040;2023-05-27T12:35:54;100095.69;;;28.89;68.02
49377;BME280;35253;34.688;33.040;2023-05-27T12:38:19;100079.41;;;28.63;67.72
49377;BME280;35253;34.688;33.040;2023-05-27T12:40:45;100097.72;;;28.69;68.27
49377;BME280;35253;34.688;33.040;2023-05-27T12:43:11;100089.91;;;28.66;70.61
49377;BME280;35253;34.688;33.040;2023-05-27T12:45:37;100125.47;;;28.54;76.80